sensor_id;sensor_type;location;lat;lon;timestamp;P1;durP1;ratioP1;P2;durP2;ratioP2
20830;SDS011;10576;53.556;9.868;2023-02-04T00:02:22;3.40;;;1.35;;
20830;SDS011;10576;53.556;9.868;2023-02-04T00:04:48;1.50;;;1.40;;
20830;SDS011;10576;53.556;9.868;2023-02-04T00:07:14;1.60;;;1.38;;
20830;SDS011;10576;53.556;9.868;2023-02-04T00:09:42;2.03;;;1.20;;
20830;SDS011;10576;53.556;9.868;2023-02-04T00:12:10;2.33;;;1.10;;
20830;SDS011;10576;53.556;9.868;2023-02-04T00:14:36;2.83;;;1.50;;
20830;SDS011;10576;53.556;9.868;2023-02-04T00:17:02;2.55;;;1.33;;
20830;SDS011;10576;53.556;9.868;2023-02-04T00:19:28;1.60;;;1.20;;
20830;SDS011;10576;53.556;9.868;2023-02-04T00:21:53;1.50;;;1.20;;
20830;SDS011;10576;53.556;9.868;2023-02-04T00:24:19;2.00;;;1.23;;
20830;SDS011;10576;53.556;9.868;2023-02-04T00:26:45;1.98;;;1.40;;
20830;SDS011;10576;53.556;9.868;2023-02-04T00:29:11;2.30;;;1.20;;
20830;SDS011;10576;53.556;9.868;2023-02-04T00:31:36;1.83;;;1.37;;
20830;SDS011;10576;53.556;9.868;2023-02-04T00:34:02;2.70;;;1.50;;
20830;SDS011;10576;53.556;9.868;2023-02-04T00:36:28;1.63;;;1.23;;
20830;SDS011;10576;53.556;9.868;2023-02-04T00:38:54;2.67;;;1.27;;
20830;SDS011;10576;53.556;9.868;2023-02-04T00:41:20;3.03;;;1.40;;
20830;SDS011;10576;53.556;9.868;2023-02-04T00:43:45;4.30;;;1.67;;
20830;SDS011;10576;53.556;9.868;2023-02-04T00:46:11;2.20;;;1.33;;
20830;SDS011;10576;53.556;9.868;2023-02-04T00:48:37;2.13;;;1.35;;
20830;SDS011;10576;53.556;9.868;2023-02-04T00:51:03;3.27;;;1.40;;
20830;SDS011;10576;53.556;9.868;2023-02-04T00:53:29;2.67;;;1.45;;
20830;SDS011;10576;53.556;9.868;2023-02-04T00:55:55;2.40;;;1.30;;
20830;SDS011;10576;53.556;9.868;2023-02-04T00:58:21;1.75;;;1.42;;
20830;SDS011;10576;53.556;9.868;2023-02-04T01:00:47;2.50;;;1.65;;
20830;SDS011;10576;53.556;9.868;2023-02-04T01:03:13;2.23;;;1.50;;
20830;SDS011;10576;53.556;9.868;2023-02-04T01:05:38;2.70;;;1.45;;
20830;SDS011;10576;53.556;9.868;2023-02-04T01:08:04;2.22;;;1.60;;
20830;SDS011;10576;53.556;9.868;2023-02-04T01:10:30;1.47;;;1.33;;
20830;SDS011;10576;53.556;9.868;2023-02-04T01:12:56;2.47;;;1.45;;
20830;SDS011;10576;53.556;9.868;2023-02-04T01:15:21;3.75;;;1.55;;
20830;SDS011;10576;53.556;9.868;2023-02-04T01:17:47;2.15;;;1.38;;
20830;SDS011;10576;53.556;9.868;2023-02-04T01:20:13;2.07;;;1.57;;
20830;SDS011;10576;53.556;9.868;2023-02-04T01:22:39;2.47;;;1.50;;
20830;SDS011;10576;53.556;9.868;2023-02-04T01:25:05;1.53;;;1.43;;
20830;SDS011;10576;53.556;9.868;2023-02-04T01:27:31;2.55;;;1.58;;
20830;SDS011;10576;53.556;9.868;2023-02-04T01:29:56;3.50;;;1.50;;
20830;SDS011;10576;53.556;9.868;2023-02-04T01:32:22;1.60;;;1.50;;
20830;SDS011;10576;53.556;9.868;2023-02-04T01:34:48;2.08;;;1.50;;
20830;SDS011;10576;53.556;9.868;2023-02-04T01:37:14;1.65;;;1.50;;
20830;SDS011;10576;53.556;9.868;2023-02-04T01:39:39;1.63;;;1.53;;
20830;SDS011;10576;53.556;9.868;2023-02-04T01:42:05;1.85;;;1.50;;
20830;SDS011;10576;53.556;9.868;2023-02-04T01:44:32;1.55;;;1.40;;
20830;SDS011;10576;53.556;9.868;2023-02-04T01:46:57;2.22;;;1.83;;
20830;SDS011;10576;53.556;9.868;2023-02-04T01:49:23;3.30;;;1.80;;
20830;SDS011;10576;53.556;9.868;2023-02-04T01:51:49;2.13;;;1.60;;
20830;SDS011;10576;53.556;9.868;2023-02-04T01:54:15;1.77;;;1.50;;
20830;SDS011;10576;53.556;9.868;2023-02-04T01:56:43;1.73;;;1.63;;
20830;SDS011;10576;53.556;9.868;2023-02-04T01:59:11;2.42;;;1.58;;
20830;SDS011;10576;53.556;9.868;2023-02-04T02:01:45;2.33;;;1.50;;
20830;SDS011;10576;53.556;9.868;2023-02-04T02:04:19;2.13;;;1.50;;
20830;SDS011;10576;53.556;9.868;2023-02-04T02:06:54;1.75;;;1.60;;
20830;SDS011;10576;53.556;9.868;2023-02-04T02:09:22;2.25;;;1.50;;
20830;SDS011;10576;53.556;9.868;2023-02-04T02:11:49;1.70;;;1.57;;
20830;SDS011;10576;53.556;9.868;2023-02-04T02:14:15;1.73;;;1.63;;
20830;SDS011;10576;53.556;9.868;2023-02-04T02:16:41;1.75;;;1.50;;
20830;SDS011;10576;53.556;9.868;2023-02-04T02:19:07;3.55;;;1.63;;
20830;SDS011;10576;53.556;9.868;2023-02-04T02:21:42;3.38;;;1.67;;
20830;SDS011;10576;53.556;9.868;2023-02-04T02:24:22;3.58;;;1.52;;
20830;SDS011;10576;53.556;9.868;2023-02-04T02:26:52;2.40;;;1.70;;
20830;SDS011;10576;53.556;9.868;2023-02-04T02:29:20;1.75;;;1.50;;
20830;SDS011;10576;53.556;9.868;2023-02-04T02:31:47;2.93;;;1.73;;
20830;SDS011;10576;53.556;9.868;2023-02-04T02:34:13;2.65;;;1.83;;
20830;SDS011;10576;53.556;9.868;2023-02-04T02:36:39;3.93;;;2.43;;
20830;SDS011;10576;53.556;9.868;2023-02-04T02:39:04;3.35;;;2.10;;
20830;SDS011;10576;53.556;9.868;2023-02-04T02:41:30;3.20;;;2.33;;
20830;SDS011;10576;53.556;9.868;2023-02-04T02:43:56;3.03;;;2.50;;
20830;SDS011;10576;53.556;9.868;2023-02-04T02:46:22;4.20;;;2.70;;
20830;SDS011;10576;53.556;9.868;2023-02-04T02:48:47;3.97;;;2.53;;
20830;SDS011;10576;53.556;9.868;2023-02-04T02:51:13;2.50;;;2.30;;
20830;SDS011;10576;53.556;9.868;2023-02-04T02:53:39;2.20;;;2.00;;
20830;SDS011;10576;53.556;9.868;2023-02-04T02:56:04;4.73;;;2.10;;
20830;SDS011;10576;53.556;9.868;2023-02-04T02:58:31;3.00;;;2.00;;
20830;SDS011;10576;53.556;9.868;2023-02-04T03:00:59;2.70;;;2.00;;
20830;SDS011;10576;53.556;9.868;2023-02-04T03:03:28;3.35;;;2.05;;
20830;SDS011;10576;53.556;9.868;2023-02-04T03:05:59;2.95;;;1.98;;
20830;SDS011;10576;53.556;9.868;2023-02-04T03:08:47;2.50;;;2.00;;
20830;SDS011;10576;53.556;9.868;2023-02-04T03:11:16;3.30;;;2.20;;
20830;SDS011;10576;53.556;9.868;2023-02-04T03:13:42;2.25;;;1.92;;
20830;SDS011;10576;53.556;9.868;2023-02-04T03:16:08;4.10;;;1.80;;
20830;SDS011;10576;53.556;9.868;2023-02-04T03:18:34;2.30;;;1.85;;
20830;SDS011;10576;53.556;9.868;2023-02-04T03:21:00;3.55;;;1.90;;
20830;SDS011;10576;53.556;9.868;2023-02-04T03:23:28;2.00;;;1.80;;
20830;SDS011;10576;53.556;9.868;2023-02-04T03:25:57;2.33;;;1.80;;
20830;SDS011;10576;53.556;9.868;2023-02-04T03:28:23;2.33;;;1.90;;
20830;SDS011;10576;53.556;9.868;2023-02-04T03:30:48;2.45;;;1.92;;
20830;SDS011;10576;53.556;9.868;2023-02-04T03:33:20;2.00;;;1.80;;
20830;SDS011;10576;53.556;9.868;2023-02-04T03:35:47;3.08;;;1.98;;
20830;SDS011;10576;53.556;9.868;2023-02-04T03:38:12;2.43;;;2.03;;
20830;SDS011;10576;53.556;9.868;2023-02-04T03:40:38;3.00;;;2.10;;
20830;SDS011;10576;53.556;9.868;2023-02-04T03:43:04;3.13;;;1.92;;
20830;SDS011;10576;53.556;9.868;2023-02-04T03:45:29;3.28;;;2.05;;
20830;SDS011;10576;53.556;9.868;2023-02-04T03:47:55;2.10;;;1.90;;
20830;SDS011;10576;53.556;9.868;2023-02-04T03:50:20;2.87;;;2.00;;
20830;SDS011;10576;53.556;9.868;2023-02-04T03:52:46;2.50;;;2.20;;
20830;SDS011;10576;53.556;9.868;2023-02-04T03:55:14;2.53;;;2.00;;
20830;SDS011;10576;53.556;9.868;2023-02-04T03:57:39;2.70;;;2.10;;
20830;SDS011;10576;53.556;9.868;2023-02-04T04:00:05;3.55;;;2.13;;
20830;SDS011;10576;53.556;9.868;2023-02-04T04:02:31;2.25;;;2.05;;
20830;SDS011;10576;53.556;9.868;2023-02-04T04:04:57;2.90;;;2.05;;
20830;SDS011;10576;53.556;9.868;2023-02-04T04:07:22;2.35;;;2.08;;
20830;SDS011;10576;53.556;9.868;2023-02-04T04:09:48;2.90;;;2.10;;
20830;SDS011;10576;53.556;9.868;2023-02-04T04:12:14;2.13;;;1.90;;
20830;SDS011;10576;53.556;9.868;2023-02-04T04:14:39;2.40;;;2.03;;
20830;SDS011;10576;53.556;9.868;2023-02-04T04:17:05;1.90;;;1.80;;
20830;SDS011;10576;53.556;9.868;2023-02-04T04:19:31;2.40;;;2.20;;
20830;SDS011;10576;53.556;9.868;2023-02-04T04:21:57;2.47;;;2.05;;
20830;SDS011;10576;53.556;9.868;2023-02-04T04:24:22;2.90;;;2.00;;
20830;SDS011;10576;53.556;9.868;2023-02-04T04:26:48;2.87;;;2.13;;
20830;SDS011;10576;53.556;9.868;2023-02-04T04:29:14;2.60;;;2.20;;
20830;SDS011;10576;53.556;9.868;2023-02-04T04:31:39;3.35;;;2.13;;
20830;SDS011;10576;53.556;9.868;2023-02-04T04:34:05;3.30;;;2.20;;
20830;SDS011;10576;53.556;9.868;2023-02-04T04:36:31;2.87;;;2.10;;
20830;SDS011;10576;53.556;9.868;2023-02-04T04:38:56;2.33;;;2.10;;
20830;SDS011;10576;53.556;9.868;2023-02-04T04:41:23;2.67;;;2.20;;
20830;SDS011;10576;53.556;9.868;2023-02-04T04:43:49;2.38;;;2.00;;
20830;SDS011;10576;53.556;9.868;2023-02-04T04:46:14;2.50;;;2.30;;
20830;SDS011;10576;53.556;9.868;2023-02-04T04:48:40;2.70;;;2.50;;
20830;SDS011;10576;53.556;9.868;2023-02-04T04:51:06;2.50;;;2.27;;
20830;SDS011;10576;53.556;9.868;2023-02-04T04:53:31;3.63;;;2.10;;
20830;SDS011;10576;53.556;9.868;2023-02-04T04:55:57;3.08;;;2.40;;
20830;SDS011;10576;53.556;9.868;2023-02-04T04:58:22;3.42;;;2.50;;
20830;SDS011;10576;53.556;9.868;2023-02-04T05:00:48;5.10;;;2.43;;
20830;SDS011;10576;53.556;9.868;2023-02-04T05:03:14;3.87;;;2.30;;
20830;SDS011;10576;53.556;9.868;2023-02-04T05:05:39;2.80;;;2.50;;
20830;SDS011;10576;53.556;9.868;2023-02-04T05:08:06;2.90;;;2.20;;
20830;SDS011;10576;53.556;9.868;2023-02-04T05:10:36;2.50;;;2.25;;
20830;SDS011;10576;53.556;9.868;2023-02-04T05:13:05;3.42;;;2.30;;
20830;SDS011;10576;53.556;9.868;2023-02-04T05:15:30;2.60;;;2.20;;
20830;SDS011;10576;53.556;9.868;2023-02-04T05:17:56;3.30;;;2.30;;
20830;SDS011;10576;53.556;9.868;2023-02-04T05:20:22;3.53;;;2.50;;
20830;SDS011;10576;53.556;9.868;2023-02-04T05:22:48;2.40;;;2.20;;
20830;SDS011;10576;53.556;9.868;2023-02-04T05:25:14;2.40;;;2.20;;
20830;SDS011;10576;53.556;9.868;2023-02-04T05:27:41;3.75;;;2.30;;
20830;SDS011;10576;53.556;9.868;2023-02-04T05:30:11;3.00;;;2.20;;
20830;SDS011;10576;53.556;9.868;2023-02-04T05:32:37;3.08;;;2.38;;
20830;SDS011;10576;53.556;9.868;2023-02-04T05:35:03;4.20;;;2.50;;
20830;SDS011;10576;53.556;9.868;2023-02-04T05:37:29;3.63;;;2.30;;
20830;SDS011;10576;53.556;9.868;2023-02-04T05:39:55;3.33;;;2.35;;
20830;SDS011;10576;53.556;9.868;2023-02-04T05:42:21;4.93;;;2.78;;
20830;SDS011;10576;53.556;9.868;2023-02-04T05:44:47;3.50;;;2.70;;
20830;SDS011;10576;53.556;9.868;2023-02-04T05:47:12;2.60;;;2.40;;
20830;SDS011;10576;53.556;9.868;2023-02-04T05:49:39;3.43;;;2.53;;
20830;SDS011;10576;53.556;9.868;2023-02-04T05:52:04;3.08;;;2.20;;
20830;SDS011;10576;53.556;9.868;2023-02-04T05:54:30;4.20;;;2.38;;
20830;SDS011;10576;53.556;9.868;2023-02-04T05:56:56;2.40;;;2.20;;
20830;SDS011;10576;53.556;9.868;2023-02-04T05:59:22;3.80;;;2.45;;
20830;SDS011;10576;53.556;9.868;2023-02-04T06:01:47;2.88;;;2.20;;
20830;SDS011;10576;53.556;9.868;2023-02-04T06:04:13;3.20;;;2.43;;
20830;SDS011;10576;53.556;9.868;2023-02-04T06:06:42;3.45;;;2.30;;
20830;SDS011;10576;53.556;9.868;2023-02-04T06:09:08;3.67;;;2.30;;
20830;SDS011;10576;53.556;9.868;2023-02-04T06:11:34;2.75;;;2.40;;
20830;SDS011;10576;53.556;9.868;2023-02-04T06:14:00;2.50;;;2.30;;
20830;SDS011;10576;53.556;9.868;2023-02-04T06:16:27;2.83;;;2.47;;
20830;SDS011;10576;53.556;9.868;2023-02-04T06:18:52;2.67;;;2.28;;
20830;SDS011;10576;53.556;9.868;2023-02-04T06:21:19;2.70;;;2.20;;
20830;SDS011;10576;53.556;9.868;2023-02-04T06:23:45;4.13;;;2.40;;
20830;SDS011;10576;53.556;9.868;2023-02-04T06:26:11;2.42;;;2.13;;
20830;SDS011;10576;53.556;9.868;2023-02-04T06:28:37;3.78;;;2.60;;
20830;SDS011;10576;53.556;9.868;2023-02-04T06:31:02;2.50;;;2.30;;
20830;SDS011;10576;53.556;9.868;2023-02-04T06:33:28;4.05;;;2.67;;
20830;SDS011;10576;53.556;9.868;2023-02-04T06:35:54;3.70;;;2.60;;
20830;SDS011;10576;53.556;9.868;2023-02-04T06:38:19;3.23;;;2.50;;
20830;SDS011;10576;53.556;9.868;2023-02-04T06:40:46;2.55;;;2.35;;
20830;SDS011;10576;53.556;9.868;2023-02-04T06:43:14;3.05;;;2.40;;
20830;SDS011;10576;53.556;9.868;2023-02-04T06:45:40;3.20;;;2.80;;
20830;SDS011;10576;53.556;9.868;2023-02-04T06:48:05;3.25;;;2.53;;
20830;SDS011;10576;53.556;9.868;2023-02-04T06:50:31;4.60;;;2.90;;
20830;SDS011;10576;53.556;9.868;2023-02-04T06:52:57;3.63;;;2.73;;
20830;SDS011;10576;53.556;9.868;2023-02-04T06:55:23;2.80;;;2.55;;
20830;SDS011;10576;53.556;9.868;2023-02-04T06:57:48;3.00;;;2.70;;
20830;SDS011;10576;53.556;9.868;2023-02-04T07:00:14;2.97;;;2.55;;
20830;SDS011;10576;53.556;9.868;2023-02-04T07:02:40;3.10;;;2.80;;
20830;SDS011;10576;53.556;9.868;2023-02-04T07:05:06;4.45;;;2.83;;
20830;SDS011;10576;53.556;9.868;2023-02-04T07:07:32;2.90;;;2.70;;
20830;SDS011;10576;53.556;9.868;2023-02-04T07:09:58;4.78;;;2.72;;
20830;SDS011;10576;53.556;9.868;2023-02-04T07:12:24;3.53;;;2.70;;
20830;SDS011;10576;53.556;9.868;2023-02-04T07:14:50;3.20;;;2.90;;
20830;SDS011;10576;53.556;9.868;2023-02-04T07:17:15;3.27;;;2.73;;
20830;SDS011;10576;53.556;9.868;2023-02-04T07:19:41;3.70;;;2.80;;
20830;SDS011;10576;53.556;9.868;2023-02-04T07:22:06;3.95;;;2.85;;
20830;SDS011;10576;53.556;9.868;2023-02-04T07:24:32;4.35;;;2.72;;
20830;SDS011;10576;53.556;9.868;2023-02-04T07:26:58;3.33;;;2.60;;
20830;SDS011;10576;53.556;9.868;2023-02-04T07:29:24;4.33;;;2.70;;
20830;SDS011;10576;53.556;9.868;2023-02-04T07:31:50;3.27;;;2.70;;
20830;SDS011;10576;53.556;9.868;2023-02-04T07:34:17;4.13;;;3.25;;
20830;SDS011;10576;53.556;9.868;2023-02-04T07:36:43;3.40;;;2.85;;
20830;SDS011;10576;53.556;9.868;2023-02-04T07:39:09;3.80;;;2.60;;
20830;SDS011;10576;53.556;9.868;2023-02-04T07:41:36;3.33;;;2.63;;
20830;SDS011;10576;53.556;9.868;2023-02-04T07:44:02;5.47;;;3.05;;
20830;SDS011;10576;53.556;9.868;2023-02-04T07:46:28;4.30;;;2.90;;
20830;SDS011;10576;53.556;9.868;2023-02-04T07:48:54;4.63;;;3.10;;
20830;SDS011;10576;53.556;9.868;2023-02-04T07:51:20;4.05;;;3.22;;
20830;SDS011;10576;53.556;9.868;2023-02-04T07:53:46;5.13;;;3.40;;
20830;SDS011;10576;53.556;9.868;2023-02-04T07:56:12;4.60;;;3.58;;
20830;SDS011;10576;53.556;9.868;2023-02-04T07:58:37;5.43;;;3.42;;
20830;SDS011;10576;53.556;9.868;2023-02-04T08:01:03;4.87;;;3.60;;
20830;SDS011;10576;53.556;9.868;2023-02-04T08:03:29;3.53;;;3.20;;
20830;SDS011;10576;53.556;9.868;2023-02-04T08:05:55;5.25;;;3.75;;
20830;SDS011;10576;53.556;9.868;2023-02-04T08:08:21;4.65;;;3.60;;
20830;SDS011;10576;53.556;9.868;2023-02-04T08:10:47;7.75;;;4.13;;
20830;SDS011;10576;53.556;9.868;2023-02-04T08:13:13;5.97;;;4.10;;
20830;SDS011;10576;53.556;9.868;2023-02-04T08:15:39;7.60;;;4.47;;
20830;SDS011;10576;53.556;9.868;2023-02-04T08:18:04;7.63;;;4.30;;
20830;SDS011;10576;53.556;9.868;2023-02-04T08:20:31;8.13;;;4.30;;
20830;SDS011;10576;53.556;9.868;2023-02-04T08:22:56;4.57;;;3.87;;
20830;SDS011;10576;53.556;9.868;2023-02-04T08:25:22;3.70;;;3.30;;
20830;SDS011;10576;53.556;9.868;2023-02-04T08:27:48;5.20;;;3.40;;
20830;SDS011;10576;53.556;9.868;2023-02-04T08:30:14;5.80;;;3.60;;
20830;SDS011;10576;53.556;9.868;2023-02-04T08:32:40;5.53;;;3.00;;
20830;SDS011;10576;53.556;9.868;2023-02-04T08:35:06;4.03;;;3.00;;
20830;SDS011;10576;53.556;9.868;2023-02-04T08:37:32;3.60;;;2.70;;
20830;SDS011;10576;53.556;9.868;2023-02-04T08:39:58;3.42;;;2.80;;
20830;SDS011;10576;53.556;9.868;2023-02-04T08:42:24;3.00;;;2.70;;
20830;SDS011;10576;53.556;9.868;2023-02-04T08:44:50;3.97;;;2.60;;
20830;SDS011;10576;53.556;9.868;2023-02-04T08:47:16;3.22;;;2.80;;
20830;SDS011;10576;53.556;9.868;2023-02-04T08:49:42;3.92;;;2.80;;
20830;SDS011;10576;53.556;9.868;2023-02-04T08:52:07;3.53;;;2.70;;
20830;SDS011;10576;53.556;9.868;2023-02-04T08:54:34;3.50;;;2.70;;
20830;SDS011;10576;53.556;9.868;2023-02-04T08:56:59;2.85;;;2.58;;
20830;SDS011;10576;53.556;9.868;2023-02-04T08:59:26;2.80;;;2.20;;
20830;SDS011;10576;53.556;9.868;2023-02-04T09:01:52;2.80;;;2.47;;
20830;SDS011;10576;53.556;9.868;2023-02-04T09:04:18;3.72;;;2.75;;
20830;SDS011;10576;53.556;9.868;2023-02-04T09:06:45;3.47;;;2.50;;
20830;SDS011;10576;53.556;9.868;2023-02-04T09:09:11;4.47;;;2.50;;
20830;SDS011;10576;53.556;9.868;2023-02-04T09:11:37;4.20;;;2.40;;
20830;SDS011;10576;53.556;9.868;2023-02-04T09:14:03;2.38;;;2.17;;
20830;SDS011;10576;53.556;9.868;2023-02-04T09:16:29;3.70;;;2.42;;
20830;SDS011;10576;53.556;9.868;2023-02-04T09:18:55;3.83;;;2.40;;
20830;SDS011;10576;53.556;9.868;2023-02-04T09:21:22;2.67;;;2.30;;
20830;SDS011;10576;53.556;9.868;2023-02-04T09:23:48;2.92;;;2.20;;
20830;SDS011;10576;53.556;9.868;2023-02-04T09:26:14;5.13;;;2.50;;
20830;SDS011;10576;53.556;9.868;2023-02-04T09:28:40;3.67;;;2.20;;
20830;SDS011;10576;53.556;9.868;2023-02-04T09:31:06;3.22;;;1.77;;
20830;SDS011;10576;53.556;9.868;2023-02-04T09:33:33;2.72;;;1.92;;
20830;SDS011;10576;53.556;9.868;2023-02-04T09:35:59;3.35;;;2.00;;
20830;SDS011;10576;53.556;9.868;2023-02-04T09:38:25;2.80;;;1.90;;
20830;SDS011;10576;53.556;9.868;2023-02-04T09:41:00;1.60;;;1.50;;
20830;SDS011;10576;53.556;9.868;2023-02-04T09:43:29;2.40;;;1.80;;
20830;SDS011;10576;53.556;9.868;2023-02-04T09:45:57;3.83;;;1.70;;
20830;SDS011;10576;53.556;9.868;2023-02-04T09:48:23;3.47;;;2.10;;
20830;SDS011;10576;53.556;9.868;2023-02-04T09:50:50;2.17;;;1.83;;
20830;SDS011;10576;53.556;9.868;2023-02-04T09:53:18;2.38;;;2.10;;
20830;SDS011;10576;53.556;9.868;2023-02-04T09:55:48;4.13;;;2.15;;
20830;SDS011;10576;53.556;9.868;2023-02-04T09:58:20;2.75;;;2.17;;
20830;SDS011;10576;53.556;9.868;2023-02-04T10:00:47;2.40;;;2.08;;
20830;SDS011;10576;53.556;9.868;2023-02-04T10:03:35;2.80;;;2.30;;
20830;SDS011;10576;53.556;9.868;2023-02-04T10:06:10;2.53;;;1.90;;
20830;SDS011;10576;53.556;9.868;2023-02-04T10:08:45;2.58;;;2.17;;
20830;SDS011;10576;53.556;9.868;2023-02-04T10:11:12;3.03;;;2.00;;
20830;SDS011;10576;53.556;9.868;2023-02-04T10:13:44;1.92;;;1.75;;
20830;SDS011;10576;53.556;9.868;2023-02-04T10:16:14;2.43;;;1.90;;
20830;SDS011;10576;53.556;9.868;2023-02-04T10:18:41;2.20;;;1.80;;
20830;SDS011;10576;53.556;9.868;2023-02-04T10:23:49;2.85;;;1.75;;
20830;SDS011;10576;53.556;9.868;2023-02-04T10:26:18;2.30;;;1.60;;
20830;SDS011;10576;53.556;9.868;2023-02-04T10:28:45;1.90;;;1.80;;
20830;SDS011;10576;53.556;9.868;2023-02-04T10:34:13;2.30;;;2.10;;
20830;SDS011;10576;53.556;9.868;2023-02-04T10:36:42;2.47;;;2.10;;
20830;SDS011;10576;53.556;9.868;2023-02-04T10:41:37;2.40;;;2.20;;
20830;SDS011;10576;53.556;9.868;2023-02-04T10:47:15;4.40;;;3.00;;
20830;SDS011;10576;53.556;9.868;2023-02-04T10:49:56;5.00;;;2.30;;
20830;SDS011;10576;53.556;9.868;2023-02-04T10:52:40;2.95;;;2.10;;
20830;SDS011;10576;53.556;9.868;2023-02-04T10:55:14;2.90;;;2.03;;
20830;SDS011;10576;53.556;9.868;2023-02-04T10:57:43;3.70;;;2.22;;
20830;SDS011;10576;53.556;9.868;2023-02-04T11:00:19;2.40;;;2.20;;
20830;SDS011;10576;53.556;9.868;2023-02-04T11:05:17;2.77;;;2.20;;
20830;SDS011;10576;53.556;9.868;2023-02-04T11:07:45;3.90;;;2.10;;
20830;SDS011;10576;53.556;9.868;2023-02-04T11:10:21;3.47;;;2.20;;
20830;SDS011;10576;53.556;9.868;2023-02-04T11:18:10;3.55;;;2.30;;
20830;SDS011;10576;53.556;9.868;2023-02-04T11:20:45;2.20;;;1.97;;
20830;SDS011;10576;53.556;9.868;2023-02-04T11:23:12;3.90;;;2.15;;
20830;SDS011;10576;53.556;9.868;2023-02-04T11:25:40;3.13;;;2.10;;
20830;SDS011;10576;53.556;9.868;2023-02-04T11:28:23;2.53;;;2.05;;
20830;SDS011;10576;53.556;9.868;2023-02-04T11:30:59;3.83;;;2.22;;
20830;SDS011;10576;53.556;9.868;2023-02-04T11:33:35;4.15;;;2.63;;
20830;SDS011;10576;53.556;9.868;2023-02-04T11:36:03;2.60;;;2.40;;
20830;SDS011;10576;53.556;9.868;2023-02-04T11:38:31;4.22;;;2.40;;
20830;SDS011;10576;53.556;9.868;2023-02-04T11:40:58;3.90;;;2.50;;
20830;SDS011;10576;53.556;9.868;2023-02-04T11:43:24;3.97;;;2.60;;
20830;SDS011;10576;53.556;9.868;2023-02-04T11:48:53;3.42;;;2.67;;
20830;SDS011;10576;53.556;9.868;2023-02-04T11:51:22;3.90;;;2.63;;
20830;SDS011;10576;53.556;9.868;2023-02-04T11:53:53;3.67;;;2.70;;
20830;SDS011;10576;53.556;9.868;2023-02-04T11:56:20;3.33;;;2.60;;
20830;SDS011;10576;53.556;9.868;2023-02-04T11:58:47;4.05;;;2.50;;
20830;SDS011;10576;53.556;9.868;2023-02-04T12:01:20;4.28;;;2.63;;
20830;SDS011;10576;53.556;9.868;2023-02-04T12:03:48;3.90;;;2.70;;
20830;SDS011;10576;53.556;9.868;2023-02-04T12:06:24;4.50;;;2.60;;
20830;SDS011;10576;53.556;9.868;2023-02-04T12:08:50;4.03;;;2.42;;
20830;SDS011;10576;53.556;9.868;2023-02-04T12:11:26;4.80;;;2.60;;
20830;SDS011;10576;53.556;9.868;2023-02-04T12:13:57;3.47;;;2.60;;
20830;SDS011;10576;53.556;9.868;2023-02-04T12:16:29;4.47;;;2.58;;
20830;SDS011;10576;53.556;9.868;2023-02-04T12:19:04;4.55;;;3.10;;
20830;SDS011;10576;53.556;9.868;2023-02-04T12:21:30;6.70;;;3.43;;
20830;SDS011;10576;53.556;9.868;2023-02-04T12:23:56;7.38;;;3.20;;
20830;SDS011;10576;53.556;9.868;2023-02-04T12:26:22;7.93;;;3.67;;
20830;SDS011;10576;53.556;9.868;2023-02-04T12:28:47;4.67;;;2.90;;
20830;SDS011;10576;53.556;9.868;2023-02-04T12:31:13;7.53;;;3.07;;
20830;SDS011;10576;53.556;9.868;2023-02-04T12:33:39;6.07;;;2.75;;
20830;SDS011;10576;53.556;9.868;2023-02-04T12:36:05;2.70;;;2.30;;
20830;SDS011;10576;53.556;9.868;2023-02-04T12:38:31;5.95;;;2.90;;
20830;SDS011;10576;53.556;9.868;2023-02-04T12:40:57;3.10;;;2.42;;
20830;SDS011;10576;53.556;9.868;2023-02-04T12:43:22;3.33;;;2.60;;
20830;SDS011;10576;53.556;9.868;2023-02-04T12:45:50;3.92;;;2.38;;
20830;SDS011;10576;53.556;9.868;2023-02-04T12:48:15;2.42;;;2.22;;
20830;SDS011;10576;53.556;9.868;2023-02-04T12:50:41;3.55;;;2.30;;
20830;SDS011;10576;53.556;9.868;2023-02-04T12:53:08;4.75;;;2.35;;
20830;SDS011;10576;53.556;9.868;2023-02-04T12:55:34;2.78;;;2.20;;
20830;SDS011;10576;53.556;9.868;2023-02-04T12:58:00;4.40;;;2.10;;
20830;SDS011;10576;53.556;9.868;2023-02-04T13:00:26;2.33;;;1.90;;
20830;SDS011;10576;53.556;9.868;2023-02-04T13:02:52;2.80;;;2.00;;
20830;SDS011;10576;53.556;9.868;2023-02-04T13:05:19;2.07;;;1.87;;
20830;SDS011;10576;53.556;9.868;2023-02-04T13:07:45;1.95;;;1.85;;
20830;SDS011;10576;53.556;9.868;2023-02-04T13:10:11;2.08;;;1.90;;
20830;SDS011;10576;53.556;9.868;2023-02-04T13:12:38;2.40;;;1.92;;
20830;SDS011;10576;53.556;9.868;2023-02-04T13:15:04;2.70;;;2.03;;
20830;SDS011;10576;53.556;9.868;2023-02-04T13:17:30;3.37;;;1.80;;
20830;SDS011;10576;53.556;9.868;2023-02-04T13:19:56;3.22;;;2.03;;
20830;SDS011;10576;53.556;9.868;2023-02-04T13:22:22;3.27;;;2.23;;
20830;SDS011;10576;53.556;9.868;2023-02-04T13:24:48;4.00;;;2.30;;
20830;SDS011;10576;53.556;9.868;2023-02-04T13:27:14;2.60;;;2.33;;
20830;SDS011;10576;53.556;9.868;2023-02-04T13:29:40;2.63;;;2.20;;
20830;SDS011;10576;53.556;9.868;2023-02-04T13:32:05;2.43;;;2.10;;
20830;SDS011;10576;53.556;9.868;2023-02-04T13:34:31;3.90;;;2.20;;
20830;SDS011;10576;53.556;9.868;2023-02-04T13:36:57;3.97;;;2.03;;
20830;SDS011;10576;53.556;9.868;2023-02-04T13:39:23;4.80;;;2.20;;
20830;SDS011;10576;53.556;9.868;2023-02-04T13:41:48;3.03;;;2.20;;
20830;SDS011;10576;53.556;9.868;2023-02-04T13:44:14;3.70;;;2.40;;
20830;SDS011;10576;53.556;9.868;2023-02-04T13:46:40;3.42;;;2.45;;
20830;SDS011;10576;53.556;9.868;2023-02-04T13:49:06;3.03;;;2.47;;
20830;SDS011;10576;53.556;9.868;2023-02-04T13:51:32;2.40;;;2.20;;
20830;SDS011;10576;53.556;9.868;2023-02-04T13:53:57;2.92;;;2.45;;
20830;SDS011;10576;53.556;9.868;2023-02-04T13:56:24;2.63;;;2.20;;
20830;SDS011;10576;53.556;9.868;2023-02-04T13:58:50;3.03;;;2.30;;
20830;SDS011;10576;53.556;9.868;2023-02-04T14:01:16;2.50;;;2.00;;
20830;SDS011;10576;53.556;9.868;2023-02-04T14:03:42;2.28;;;2.00;;
20830;SDS011;10576;53.556;9.868;2023-02-04T14:06:08;2.45;;;1.90;;
20830;SDS011;10576;53.556;9.868;2023-02-04T14:08:34;3.28;;;2.08;;
20830;SDS011;10576;53.556;9.868;2023-02-04T14:10:59;3.28;;;2.10;;
20830;SDS011;10576;53.556;9.868;2023-02-04T14:13:25;2.25;;;2.03;;
20830;SDS011;10576;53.556;9.868;2023-02-04T14:15:51;4.07;;;2.30;;
20830;SDS011;10576;53.556;9.868;2023-02-04T14:18:17;2.80;;;2.13;;
20830;SDS011;10576;53.556;9.868;2023-02-04T14:20:43;2.10;;;1.90;;
20830;SDS011;10576;53.556;9.868;2023-02-04T14:23:08;3.80;;;2.43;;
20830;SDS011;10576;53.556;9.868;2023-02-04T14:25:35;2.20;;;2.00;;
20830;SDS011;10576;53.556;9.868;2023-02-04T14:28:01;2.97;;;2.28;;
20830;SDS011;10576;53.556;9.868;2023-02-04T14:30:28;3.50;;;2.20;;
20830;SDS011;10576;53.556;9.868;2023-02-04T14:32:54;3.17;;;2.10;;
20830;SDS011;10576;53.556;9.868;2023-02-04T14:35:21;2.67;;;2.08;;
20830;SDS011;10576;53.556;9.868;2023-02-04T14:37:47;2.90;;;1.97;;
20830;SDS011;10576;53.556;9.868;2023-02-04T14:40:13;2.78;;;2.13;;
20830;SDS011;10576;53.556;9.868;2023-02-04T14:42:39;2.83;;;2.15;;
20830;SDS011;10576;53.556;9.868;2023-02-04T14:45:06;3.63;;;1.98;;
20830;SDS011;10576;53.556;9.868;2023-02-04T14:47:36;2.55;;;1.90;;
20830;SDS011;10576;53.556;9.868;2023-02-04T14:50:03;2.80;;;2.10;;
20830;SDS011;10576;53.556;9.868;2023-02-04T14:52:29;3.08;;;1.90;;
20830;SDS011;10576;53.556;9.868;2023-02-04T14:54:55;2.13;;;1.90;;
20830;SDS011;10576;53.556;9.868;2023-02-04T14:57:21;2.38;;;1.80;;
20830;SDS011;10576;53.556;9.868;2023-02-04T14:59:47;3.92;;;1.98;;
20830;SDS011;10576;53.556;9.868;2023-02-04T15:02:13;2.33;;;1.93;;
20830;SDS011;10576;53.556;9.868;2023-02-04T15:04:40;2.15;;;1.90;;
20830;SDS011;10576;53.556;9.868;2023-02-04T15:07:06;2.30;;;1.80;;
20830;SDS011;10576;53.556;9.868;2023-02-04T15:09:32;2.45;;;1.90;;